Terminal Aerodrome Forecast
Issued by NWS

Home | Current Version | Previous Version | Text Only | Print | Product List | Glossary Off
Versions: 1 2 3 4 5 6 7 8 9 10 11 12 13

000
FTUS43 KBIS 171740
TAFMOT
TAF
KMOT 171740Z 1718/1818 VRB06KT P6SM BKN130
     FM180000 30005KT P6SM BKN100
     FM180800 30010G18KT P6SM BKN045
     FM181200 30015G20KT P6SM SCT025
     FM181700 29015G20KT P6SM SCT130=

USA.gov is the U.S. government's official web portal to all federal, state and local government web resources and services.